sensor_id;sensor_type;location;lat;lon;timestamp;temperature;humidity
76099;DHT22;64828;49.956;8.636;2023-04-19T00:00:06;10.30;73.30
76099;DHT22;64828;49.956;8.636;2023-04-19T00:00:22;10.30;73.40
76099;DHT22;64828;49.956;8.636;2023-04-19T00:00:39;10.30;73.50
76099;DHT22;64828;49.956;8.636;2023-04-19T00:00:56;10.30;73.60
76099;DHT22;64828;49.956;8.636;2023-04-19T00:01:12;10.30;73.60
76099;DHT22;64828;49.956;8.636;2023-04-19T00:01:27;10.20;73.50
76099;DHT22;64828;49.956;8.636;2023-04-19T00:01:43;10.20;73.60
76099;DHT22;64828;49.956;8.636;2023-04-19T00:01:59;10.30;73.60
76099;DHT22;64828;49.956;8.636;2023-04-19T00:02:14;10.30;73.40
76099;DHT22;64828;49.956;8.636;2023-04-19T00:02:30;10.20;73.20
76099;DHT22;64828;49.956;8.636;2023-04-19T00:02:48;10.20;73.00
76099;DHT22;64828;49.956;8.636;2023-04-19T00:03:05;10.30;72.90
76099;DHT22;64828;49.956;8.636;2023-04-19T00:03:21;10.20;72.90
76099;DHT22;64828;49.956;8.636;2023-04-19T00:03:38;10.30;73.00
76099;DHT22;64828;49.956;8.636;2023-04-19T00:03:54;10.30;73.10
76099;DHT22;64828;49.956;8.636;2023-04-19T00:04:10;10.20;73.10
76099;DHT22;64828;49.956;8.636;2023-04-19T00:04:26;10.20;73.20
76099;DHT22;64828;49.956;8.636;2023-04-19T00:04:42;10.30;73.20
76099;DHT22;64828;49.956;8.636;2023-04-19T00:05:01;10.30;73.20
76099;DHT22;64828;49.956;8.636;2023-04-19T00:05:17;10.30;73.20
76099;DHT22;64828;49.956;8.636;2023-04-19T00:05:34;10.30;73.10
76099;DHT22;64828;49.956;8.636;2023-04-19T00:05:52;10.30;73.20
76099;DHT22;64828;49.956;8.636;2023-04-19T00:06:08;10.30;73.40
76099;DHT22;64828;49.956;8.636;2023-04-19T00:06:24;10.30;73.50
76099;DHT22;64828;49.956;8.636;2023-04-19T00:06:40;10.30;73.30
76099;DHT22;64828;49.956;8.636;2023-04-19T00:06:56;10.30;73.50
76099;DHT22;64828;49.956;8.636;2023-04-19T00:07:12;10.30;73.60
76099;DHT22;64828;49.956;8.636;2023-04-19T00:07:28;10.20;73.50
76099;DHT22;64828;49.956;8.636;2023-04-19T00:07:43;10.20;73.50
76099;DHT22;64828;49.956;8.636;2023-04-19T00:07:59;10.20;73.20
76099;DHT22;64828;49.956;8.636;2023-04-19T00:08:15;10.20;73.10
76099;DHT22;64828;49.956;8.636;2023-04-19T00:08:30;10.30;73.00
76099;DHT22;64828;49.956;8.636;2023-04-19T00:08:46;10.20;73.00
76099;DHT22;64828;49.956;8.636;2023-04-19T00:09:02;10.30;73.20
76099;DHT22;64828;49.956;8.636;2023-04-19T00:09:18;10.30;73.40
76099;DHT22;64828;49.956;8.636;2023-04-19T00:09:33;10.30;73.50
76099;DHT22;64828;49.956;8.636;2023-04-19T00:09:49;10.20;73.50
76099;DHT22;64828;49.956;8.636;2023-04-19T00:10:05;10.20;73.50
76099;DHT22;64828;49.956;8.636;2023-04-19T00:10:21;10.20;73.40
76099;DHT22;64828;49.956;8.636;2023-04-19T00:10:37;10.20;73.30
76099;DHT22;64828;49.956;8.636;2023-04-19T00:10:54;10.30;73.30
76099;DHT22;64828;49.956;8.636;2023-04-19T00:11:09;10.20;73.20
76099;DHT22;64828;49.956;8.636;2023-04-19T00:11:25;10.30;73.30
76099;DHT22;64828;49.956;8.636;2023-04-19T00:11:41;10.20;73.30
76099;DHT22;64828;49.956;8.636;2023-04-19T00:11:56;10.20;73.20
76099;DHT22;64828;49.956;8.636;2023-04-19T00:12:12;10.20;73.20
76099;DHT22;64828;49.956;8.636;2023-04-19T00:12:27;10.20;73.20
76099;DHT22;64828;49.956;8.636;2023-04-19T00:12:43;10.30;73.30
76099;DHT22;64828;49.956;8.636;2023-04-19T00:12:59;10.20;73.40
76099;DHT22;64828;49.956;8.636;2023-04-19T00:13:14;10.20;73.30
76099;DHT22;64828;49.956;8.636;2023-04-19T00:13:30;10.20;73.50
76099;DHT22;64828;49.956;8.636;2023-04-19T00:13:45;10.20;73.60
76099;DHT22;64828;49.956;8.636;2023-04-19T00:14:01;10.30;73.60
76099;DHT22;64828;49.956;8.636;2023-04-19T00:14:17;10.20;73.60
76099;DHT22;64828;49.956;8.636;2023-04-19T00:14:32;10.20;73.50
76099;DHT22;64828;49.956;8.636;2023-04-19T00:14:48;10.20;73.60
76099;DHT22;64828;49.956;8.636;2023-04-19T00:15:04;10.20;73.70
76099;DHT22;64828;49.956;8.636;2023-04-19T00:15:20;10.20;73.60
76099;DHT22;64828;49.956;8.636;2023-04-19T00:15:37;10.20;73.40
76099;DHT22;64828;49.956;8.636;2023-04-19T00:15:52;10.20;73.40
76099;DHT22;64828;49.956;8.636;2023-04-19T00:16:08;10.20;73.60
76099;DHT22;64828;49.956;8.636;2023-04-19T00:16:24;10.20;73.60
76099;DHT22;64828;49.956;8.636;2023-04-19T00:16:39;10.20;73.50
76099;DHT22;64828;49.956;8.636;2023-04-19T00:16:55;10.20;73.50
76099;DHT22;64828;49.956;8.636;2023-04-19T00:17:11;10.20;73.40
76099;DHT22;64828;49.956;8.636;2023-04-19T00:17:26;10.20;73.20
76099;DHT22;64828;49.956;8.636;2023-04-19T00:17:42;10.20;73.20
76099;DHT22;64828;49.956;8.636;2023-04-19T00:17:57;10.20;73.20
76099;DHT22;64828;49.956;8.636;2023-04-19T00:18:13;10.20;73.20
76099;DHT22;64828;49.956;8.636;2023-04-19T00:18:28;10.20;73.20
76099;DHT22;64828;49.956;8.636;2023-04-19T00:18:44;10.20;73.20
76099;DHT22;64828;49.956;8.636;2023-04-19T00:19:00;10.20;73.10
76099;DHT22;64828;49.956;8.636;2023-04-19T00:19:16;10.20;73.10
76099;DHT22;64828;49.956;8.636;2023-04-19T00:19:32;10.20;73.00
76099;DHT22;64828;49.956;8.636;2023-04-19T00:19:47;10.20;73.00
76099;DHT22;64828;49.956;8.636;2023-04-19T00:20:04;10.20;73.00
76099;DHT22;64828;49.956;8.636;2023-04-19T00:20:20;10.20;73.10
76099;DHT22;64828;49.956;8.636;2023-04-19T00:20:37;10.20;73.20
76099;DHT22;64828;49.956;8.636;2023-04-19T00:20:53;10.20;73.30
76099;DHT22;64828;49.956;8.636;2023-04-19T00:21:09;10.20;73.50
76099;DHT22;64828;49.956;8.636;2023-04-19T00:21:24;10.20;73.60
76099;DHT22;64828;49.956;8.636;2023-04-19T00:21:40;10.20;73.70
76099;DHT22;64828;49.956;8.636;2023-04-19T00:21:56;10.20;73.80
76099;DHT22;64828;49.956;8.636;2023-04-19T00:22:12;10.20;73.70
76099;DHT22;64828;49.956;8.636;2023-04-19T00:22:27;10.20;73.80
76099;DHT22;64828;49.956;8.636;2023-04-19T00:22:43;10.20;73.80
76099;DHT22;64828;49.956;8.636;2023-04-19T00:22:58;10.20;73.60
76099;DHT22;64828;49.956;8.636;2023-04-19T00:23:14;10.20;73.70
76099;DHT22;64828;49.956;8.636;2023-04-19T00:23:30;10.20;73.90
76099;DHT22;64828;49.956;8.636;2023-04-19T00:23:45;10.20;74.00
76099;DHT22;64828;49.956;8.636;2023-04-19T00:24:01;10.20;74.10
76099;DHT22;64828;49.956;8.636;2023-04-19T00:24:17;10.20;74.20
76099;DHT22;64828;49.956;8.636;2023-04-19T00:24:33;10.20;74.20
76099;DHT22;64828;49.956;8.636;2023-04-19T00:24:48;10.20;74.00
76099;DHT22;64828;49.956;8.636;2023-04-19T00:25:05;10.20;74.10
76099;DHT22;64828;49.956;8.636;2023-04-19T00:25:21;10.10;74.10
76099;DHT22;64828;49.956;8.636;2023-04-19T00:25:36;10.10;74.10
76099;DHT22;64828;49.956;8.636;2023-04-19T00:25:52;10.10;73.80
76099;DHT22;64828;49.956;8.636;2023-04-19T00:26:07;10.20;73.90
76099;DHT22;64828;49.956;8.636;2023-04-19T00:26:25;10.20;74.10
76099;DHT22;64828;49.956;8.636;2023-04-19T00:26:41;10.10;74.10
76099;DHT22;64828;49.956;8.636;2023-04-19T00:26:56;10.20;74.20
76099;DHT22;64828;49.956;8.636;2023-04-19T00:27:13;10.10;74.10
76099;DHT22;64828;49.956;8.636;2023-04-19T00:27:29;10.20;74.20
76099;DHT22;64828;49.956;8.636;2023-04-19T00:27:44;10.10;74.30
76099;DHT22;64828;49.956;8.636;2023-04-19T00:28:00;10.10;74.30
76099;DHT22;64828;49.956;8.636;2023-04-19T00:28:15;10.10;74.30
76099;DHT22;64828;49.956;8.636;2023-04-19T00:28:32;10.10;74.30
76099;DHT22;64828;49.956;8.636;2023-04-19T00:28:48;10.10;74.00
76099;DHT22;64828;49.956;8.636;2023-04-19T00:29:04;10.20;74.10
76099;DHT22;64828;49.956;8.636;2023-04-19T00:29:20;10.10;74.00
76099;DHT22;64828;49.956;8.636;2023-04-19T00:29:35;10.10;74.10
76099;DHT22;64828;49.956;8.636;2023-04-19T00:29:51;10.10;74.20
76099;DHT22;64828;49.956;8.636;2023-04-19T00:30:07;10.10;74.30
76099;DHT22;64828;49.956;8.636;2023-04-19T00:30:23;10.20;74.30
76099;DHT22;64828;49.956;8.636;2023-04-19T00:30:38;10.10;74.20
76099;DHT22;64828;49.956;8.636;2023-04-19T00:30:54;10.10;74.30
76099;DHT22;64828;49.956;8.636;2023-04-19T00:31:09;10.10;74.30
76099;DHT22;64828;49.956;8.636;2023-04-19T00:31:25;10.10;74.50
76099;DHT22;64828;49.956;8.636;2023-04-19T00:31:41;10.10;74.60
76099;DHT22;64828;49.956;8.636;2023-04-19T00:31:56;10.10;74.60
76099;DHT22;64828;49.956;8.636;2023-04-19T00:32:12;10.10;74.50
76099;DHT22;64828;49.956;8.636;2023-04-19T00:32:28;10.10;74.40
76099;DHT22;64828;49.956;8.636;2023-04-19T00:32:43;10.10;74.40
76099;DHT22;64828;49.956;8.636;2023-04-19T00:32:59;10.10;74.50
76099;DHT22;64828;49.956;8.636;2023-04-19T00:33:15;10.10;74.50
76099;DHT22;64828;49.956;8.636;2023-04-19T00:33:32;10.10;74.40
76099;DHT22;64828;49.956;8.636;2023-04-19T00:33:47;10.10;74.40
76099;DHT22;64828;49.956;8.636;2023-04-19T00:34:03;10.10;74.60
76099;DHT22;64828;49.956;8.636;2023-04-19T00:34:18;10.10;74.60
76099;DHT22;64828;49.956;8.636;2023-04-19T00:34:34;10.10;74.50
76099;DHT22;64828;49.956;8.636;2023-04-19T00:34:50;10.10;74.40
76099;DHT22;64828;49.956;8.636;2023-04-19T00:35:05;10.10;74.50
76099;DHT22;64828;49.956;8.636;2023-04-19T00:35:21;10.10;74.60
76099;DHT22;64828;49.956;8.636;2023-04-19T00:35:40;10.10;74.70
76099;DHT22;64828;49.956;8.636;2023-04-19T00:35:56;10.10;74.60
76099;DHT22;64828;49.956;8.636;2023-04-19T00:36:12;10.10;74.50
76099;DHT22;64828;49.956;8.636;2023-04-19T00:36:27;10.10;74.60
76099;DHT22;64828;49.956;8.636;2023-04-19T00:36:43;10.10;74.70
76099;DHT22;64828;49.956;8.636;2023-04-19T00:36:58;10.10;74.70
76099;DHT22;64828;49.956;8.636;2023-04-19T00:37:14;10.10;74.10
76099;DHT22;64828;49.956;8.636;2023-04-19T00:37:30;10.10;74.10
76099;DHT22;64828;49.956;8.636;2023-04-19T00:37:46;10.10;74.30
76099;DHT22;64828;49.956;8.636;2023-04-19T00:38:01;10.10;74.30
76099;DHT22;64828;49.956;8.636;2023-04-19T00:38:17;10.10;74.20
76099;DHT22;64828;49.956;8.636;2023-04-19T00:38:32;10.10;74.30
76099;DHT22;64828;49.956;8.636;2023-04-19T00:38:48;10.10;74.30
76099;DHT22;64828;49.956;8.636;2023-04-19T00:39:04;10.10;74.20
76099;DHT22;64828;49.956;8.636;2023-04-19T00:39:20;10.10;74.30
76099;DHT22;64828;49.956;8.636;2023-04-19T00:39:36;10.10;74.30
76099;DHT22;64828;49.956;8.636;2023-04-19T00:39:51;10.10;74.50
76099;DHT22;64828;49.956;8.636;2023-04-19T00:40:07;10.10;74.40
76099;DHT22;64828;49.956;8.636;2023-04-19T00:40:23;10.10;74.40
76099;DHT22;64828;49.956;8.636;2023-04-19T00:40:39;10.10;74.40
76099;DHT22;64828;49.956;8.636;2023-04-19T00:40:54;10.10;74.30
76099;DHT22;64828;49.956;8.636;2023-04-19T00:41:10;10.10;74.30
76099;DHT22;64828;49.956;8.636;2023-04-19T00:41:25;10.10;74.30
76099;DHT22;64828;49.956;8.636;2023-04-19T00:41:41;10.10;74.30
76099;DHT22;64828;49.956;8.636;2023-04-19T00:41:57;10.00;74.30
76099;DHT22;64828;49.956;8.636;2023-04-19T00:42:12;10.10;74.50
76099;DHT22;64828;49.956;8.636;2023-04-19T00:42:28;10.10;74.60
76099;DHT22;64828;49.956;8.636;2023-04-19T00:42:44;10.00;74.60
76099;DHT22;64828;49.956;8.636;2023-04-19T00:42:59;10.10;74.40
76099;DHT22;64828;49.956;8.636;2023-04-19T00:43:18;10.10;74.40
76099;DHT22;64828;49.956;8.636;2023-04-19T00:43:34;10.10;74.50
76099;DHT22;64828;49.956;8.636;2023-04-19T00:43:50;10.00;74.80
76099;DHT22;64828;49.956;8.636;2023-04-19T00:44:05;10.00;74.80
76099;DHT22;64828;49.956;8.636;2023-04-19T00:44:21;10.00;74.80
76099;DHT22;64828;49.956;8.636;2023-04-19T00:44:37;10.00;74.80
76099;DHT22;64828;49.956;8.636;2023-04-19T00:44:53;10.00;74.80
76099;DHT22;64828;49.956;8.636;2023-04-19T00:45:09;10.00;75.00
76099;DHT22;64828;49.956;8.636;2023-04-19T00:45:25;10.00;74.90
76099;DHT22;64828;49.956;8.636;2023-04-19T00:45:41;10.00;74.90
76099;DHT22;64828;49.956;8.636;2023-04-19T00:45:56;10.00;74.90
76099;DHT22;64828;49.956;8.636;2023-04-19T00:46:13;10.00;74.80
76099;DHT22;64828;49.956;8.636;2023-04-19T00:46:30;10.00;75.00
76099;DHT22;64828;49.956;8.636;2023-04-19T00:46:45;10.00;74.90
76099;DHT22;64828;49.956;8.636;2023-04-19T00:47:01;10.00;75.00
76099;DHT22;64828;49.956;8.636;2023-04-19T00:47:17;10.00;75.10
76099;DHT22;64828;49.956;8.636;2023-04-19T00:47:33;10.00;75.00
76099;DHT22;64828;49.956;8.636;2023-04-19T00:47:50;10.00;75.10
76099;DHT22;64828;49.956;8.636;2023-04-19T00:48:07;10.00;75.20
76099;DHT22;64828;49.956;8.636;2023-04-19T00:48:24;10.00;75.20
76099;DHT22;64828;49.956;8.636;2023-04-19T00:48:40;10.00;75.20
76099;DHT22;64828;49.956;8.636;2023-04-19T00:48:56;10.00;75.20
76099;DHT22;64828;49.956;8.636;2023-04-19T00:49:12;10.00;75.20
76099;DHT22;64828;49.956;8.636;2023-04-19T00:49:29;10.00;75.30
76099;DHT22;64828;49.956;8.636;2023-04-19T00:49:45;10.00;75.30
76099;DHT22;64828;49.956;8.636;2023-04-19T00:50:02;10.00;75.30
76099;DHT22;64828;49.956;8.636;2023-04-19T00:50:19;10.00;75.30
76099;DHT22;64828;49.956;8.636;2023-04-19T00:50:35;10.00;75.30
76099;DHT22;64828;49.956;8.636;2023-04-19T00:50:51;10.00;75.30
76099;DHT22;64828;49.956;8.636;2023-04-19T00:51:07;10.00;75.30
76099;DHT22;64828;49.956;8.636;2023-04-19T00:51:25;10.00;75.20
76099;DHT22;64828;49.956;8.636;2023-04-19T00:51:41;10.00;75.40
76099;DHT22;64828;49.956;8.636;2023-04-19T00:51:57;10.00;75.50
76099;DHT22;64828;49.956;8.636;2023-04-19T00:52:13;9.90;75.50
76099;DHT22;64828;49.956;8.636;2023-04-19T00:52:28;10.00;75.50
76099;DHT22;64828;49.956;8.636;2023-04-19T00:52:45;10.00;75.30
76099;DHT22;64828;49.956;8.636;2023-04-19T00:53:01;10.00;75.20
76099;DHT22;64828;49.956;8.636;2023-04-19T00:53:17;9.90;75.30
76099;DHT22;64828;49.956;8.636;2023-04-19T00:53:33;9.90;75.40
76099;DHT22;64828;49.956;8.636;2023-04-19T00:53:49;10.00;75.30
76099;DHT22;64828;49.956;8.636;2023-04-19T00:54:05;10.00;75.30
76099;DHT22;64828;49.956;8.636;2023-04-19T00:54:22;10.00;75.40
76099;DHT22;64828;49.956;8.636;2023-04-19T00:54:38;10.00;75.40
76099;DHT22;64828;49.956;8.636;2023-04-19T00:54:57;9.90;75.40
76099;DHT22;64828;49.956;8.636;2023-04-19T00:55:14;10.00;75.50
76099;DHT22;64828;49.956;8.636;2023-04-19T00:55:29;10.00;75.50
76099;DHT22;64828;49.956;8.636;2023-04-19T00:55:45;10.00;75.50
76099;DHT22;64828;49.956;8.636;2023-04-19T00:56:03;10.00;75.60
76099;DHT22;64828;49.956;8.636;2023-04-19T00:56:21;9.90;75.70
76099;DHT22;64828;49.956;8.636;2023-04-19T00:56:39;10.00;75.60
76099;DHT22;64828;49.956;8.636;2023-04-19T00:56:55;10.00;75.50
76099;DHT22;64828;49.956;8.636;2023-04-19T00:57:11;9.90;75.50
76099;DHT22;64828;49.956;8.636;2023-04-19T00:57:27;9.90;75.50
76099;DHT22;64828;49.956;8.636;2023-04-19T00:57:44;10.00;75.40
76099;DHT22;64828;49.956;8.636;2023-04-19T00:58:01;9.90;75.20
76099;DHT22;64828;49.956;8.636;2023-04-19T00:58:17;9.90;75.30
76099;DHT22;64828;49.956;8.636;2023-04-19T00:58:33;9.90;75.40
76099;DHT22;64828;49.956;8.636;2023-04-19T00:58:48;10.00;75.50
76099;DHT22;64828;49.956;8.636;2023-04-19T00:59:06;10.00;75.40
76099;DHT22;64828;49.956;8.636;2023-04-19T00:59:22;10.00;75.30
76099;DHT22;64828;49.956;8.636;2023-04-19T00:59:39;10.00;75.30
76099;DHT22;64828;49.956;8.636;2023-04-19T00:59:55;9.90;75.30
76099;DHT22;64828;49.956;8.636;2023-04-19T01:00:12;9.90;75.40
76099;DHT22;64828;49.956;8.636;2023-04-19T01:00:29;9.90;75.50
76099;DHT22;64828;49.956;8.636;2023-04-19T01:00:44;10.00;75.50
76099;DHT22;64828;49.956;8.636;2023-04-19T01:01:00;9.90;75.30
76099;DHT22;64828;49.956;8.636;2023-04-19T01:01:16;9.90;75.20
76099;DHT22;64828;49.956;8.636;2023-04-19T01:01:33;9.90;75.20
76099;DHT22;64828;49.956;8.636;2023-04-19T01:01:48;10.00;75.00
76099;DHT22;64828;49.956;8.636;2023-04-19T01:02:04;9.90;75.20
76099;DHT22;64828;49.956;8.636;2023-04-19T01:02:21;9.90;75.20
76099;DHT22;64828;49.956;8.636;2023-04-19T01:02:37;10.00;75.40
76099;DHT22;64828;49.956;8.636;2023-04-19T01:02:52;9.90;75.40
76099;DHT22;64828;49.956;8.636;2023-04-19T01:03:09;10.00;75.20
76099;DHT22;64828;49.956;8.636;2023-04-19T01:03:25;10.00;75.10
76099;DHT22;64828;49.956;8.636;2023-04-19T01:03:41;10.00;75.10
76099;DHT22;64828;49.956;8.636;2023-04-19T01:03:57;9.90;75.10
76099;DHT22;64828;49.956;8.636;2023-04-19T01:04:13;10.00;75.00
76099;DHT22;64828;49.956;8.636;2023-04-19T01:04:30;10.00;75.10
76099;DHT22;64828;49.956;8.636;2023-04-19T01:04:45;10.00;75.10
76099;DHT22;64828;49.956;8.636;2023-04-19T01:05:01;10.00;75.10
76099;DHT22;64828;49.956;8.636;2023-04-19T01:05:17;10.00;75.10
76099;DHT22;64828;49.956;8.636;2023-04-19T01:05:33;10.00;75.10
76099;DHT22;64828;49.956;8.636;2023-04-19T01:05:49;10.00;75.20
76099;DHT22;64828;49.956;8.636;2023-04-19T01:06:04;10.00;75.10
76099;DHT22;64828;49.956;8.636;2023-04-19T01:06:21;10.00;75.30
76099;DHT22;64828;49.956;8.636;2023-04-19T01:06:37;10.00;75.10
76099;DHT22;64828;49.956;8.636;2023-04-19T01:06:55;10.00;75.10
76099;DHT22;64828;49.956;8.636;2023-04-19T01:07:12;10.00;75.20
76099;DHT22;64828;49.956;8.636;2023-04-19T01:07:28;10.00;75.20
76099;DHT22;64828;49.956;8.636;2023-04-19T01:07:43;10.00;75.40
76099;DHT22;64828;49.956;8.636;2023-04-19T01:07:59;10.00;75.40
76099;DHT22;64828;49.956;8.636;2023-04-19T01:08:14;10.00;75.40
76099;DHT22;64828;49.956;8.636;2023-04-19T01:08:30;10.00;75.40
76099;DHT22;64828;49.956;8.636;2023-04-19T01:08:47;9.90;75.50
76099;DHT22;64828;49.956;8.636;2023-04-19T01:09:02;10.00;75.50
76099;DHT22;64828;49.956;8.636;2023-04-19T01:09:19;10.00;75.50
76099;DHT22;64828;49.956;8.636;2023-04-19T01:09:34;10.00;75.40
76099;DHT22;64828;49.956;8.636;2023-04-19T01:09:55;10.00;75.20
76099;DHT22;64828;49.956;8.636;2023-04-19T01:10:10;10.00;75.10
76099;DHT22;64828;49.956;8.636;2023-04-19T01:10:26;10.00;75.20
76099;DHT22;64828;49.956;8.636;2023-04-19T01:10:42;10.00;75.30
76099;DHT22;64828;49.956;8.636;2023-04-19T01:10:58;10.00;75.30
76099;DHT22;64828;49.956;8.636;2023-04-19T01:11:13;10.00;75.40
76099;DHT22;64828;49.956;8.636;2023-04-19T01:11:29;10.00;75.40
76099;DHT22;64828;49.956;8.636;2023-04-19T01:11:44;10.00;75.50
76099;DHT22;64828;49.956;8.636;2023-04-19T01:12:00;10.00;75.40
76099;DHT22;64828;49.956;8.636;2023-04-19T01:12:17;10.00;75.30
76099;DHT22;64828;49.956;8.636;2023-04-19T01:12:33;10.00;75.30
76099;DHT22;64828;49.956;8.636;2023-04-19T01:12:49;10.00;75.30
76099;DHT22;64828;49.956;8.636;2023-04-19T01:13:04;10.00;75.40
76099;DHT22;64828;49.956;8.636;2023-04-19T01:13:20;10.00;75.50
76099;DHT22;64828;49.956;8.636;2023-04-19T01:13:36;10.00;75.60
76099;DHT22;64828;49.956;8.636;2023-04-19T01:13:52;10.00;75.50
76099;DHT22;64828;49.956;8.636;2023-04-19T01:14:07;10.00;75.50
76099;DHT22;64828;49.956;8.636;2023-04-19T01:14:23;10.00;75.60
76099;DHT22;64828;49.956;8.636;2023-04-19T01:14:39;10.00;75.50
76099;DHT22;64828;49.956;8.636;2023-04-19T01:14:55;10.00;75.30
76099;DHT22;64828;49.956;8.636;2023-04-19T01:15:10;10.00;75.40
76099;DHT22;64828;49.956;8.636;2023-04-19T01:15:26;10.00;75.50
76099;DHT22;64828;49.956;8.636;2023-04-19T01:15:43;10.00;75.40
76099;DHT22;64828;49.956;8.636;2023-04-19T01:15:59;9.90;75.60
76099;DHT22;64828;49.956;8.636;2023-04-19T01:16:15;10.00;75.60
76099;DHT22;64828;49.956;8.636;2023-04-19T01:16:30;10.00;75.60
76099;DHT22;64828;49.956;8.636;2023-04-19T01:16:47;10.00;75.40
76099;DHT22;64828;49.956;8.636;2023-04-19T01:17:03;10.00;75.30
76099;DHT22;64828;49.956;8.636;2023-04-19T01:17:19;10.00;75.40
76099;DHT22;64828;49.956;8.636;2023-04-19T01:17:35;10.00;75.50
76099;DHT22;64828;49.956;8.636;2023-04-19T01:17:51;10.00;75.50
76099;DHT22;64828;49.956;8.636;2023-04-19T01:18:07;10.00;75.60
76099;DHT22;64828;49.956;8.636;2023-04-19T01:18:23;10.00;75.50
76099;DHT22;64828;49.956;8.636;2023-04-19T01:18:40;10.00;75.50
76099;DHT22;64828;49.956;8.636;2023-04-19T01:18:55;10.00;75.50
76099;DHT22;64828;49.956;8.636;2023-04-19T01:19:11;10.00;75.60
76099;DHT22;64828;49.956;8.636;2023-04-19T01:19:27;10.00;75.70
76099;DHT22;64828;49.956;8.636;2023-04-19T01:19:42;10.00;75.80
76099;DHT22;64828;49.956;8.636;2023-04-19T01:19:59;10.00;75.60
76099;DHT22;64828;49.956;8.636;2023-04-19T01:20:16;10.00;75.50
76099;DHT22;64828;49.956;8.636;2023-04-19T01:20:31;10.00;75.60
76099;DHT22;64828;49.956;8.636;2023-04-19T01:20:47;10.00;75.60
76099;DHT22;64828;49.956;8.636;2023-04-19T01:21:03;10.00;75.50
76099;DHT22;64828;49.956;8.636;2023-04-19T01:21:19;10.00;75.60
76099;DHT22;64828;49.956;8.636;2023-04-19T01:21:39;10.00;75.60
76099;DHT22;64828;49.956;8.636;2023-04-19T01:21:54;10.00;75.60
76099;DHT22;64828;49.956;8.636;2023-04-19T01:22:20;10.00;75.60
76099;DHT22;64828;49.956;8.636;2023-04-19T01:22:38;10.00;75.60
76099;DHT22;64828;49.956;8.636;2023-04-19T01:22:54;10.00;75.50
76099;DHT22;64828;49.956;8.636;2023-04-19T01:23:10;10.00;75.40
76099;DHT22;64828;49.956;8.636;2023-04-19T01:23:26;10.00;75.50
76099;DHT22;64828;49.956;8.636;2023-04-19T01:23:42;10.00;75.50
76099;DHT22;64828;49.956;8.636;2023-04-19T01:23:57;10.00;75.80
76099;DHT22;64828;49.956;8.636;2023-04-19T01:24:13;10.00;75.80
76099;DHT22;64828;49.956;8.636;2023-04-19T01:24:32;10.00;75.70
76099;DHT22;64828;49.956;8.636;2023-04-19T01:24:48;10.00;75.60
76099;DHT22;64828;49.956;8.636;2023-04-19T01:25:04;10.00;75.50
76099;DHT22;64828;49.956;8.636;2023-04-19T01:25:21;10.00;75.50
76099;DHT22;64828;49.956;8.636;2023-04-19T01:25:37;10.00;75.60
76099;DHT22;64828;49.956;8.636;2023-04-19T01:25:53;10.00;75.50
76099;DHT22;64828;49.956;8.636;2023-04-19T01:26:08;10.00;75.60
76099;DHT22;64828;49.956;8.636;2023-04-19T01:26:24;10.00;75.60
76099;DHT22;64828;49.956;8.636;2023-04-19T01:26:40;10.00;75.70
76099;DHT22;64828;49.956;8.636;2023-04-19T01:26:56;10.00;75.80
76099;DHT22;64828;49.956;8.636;2023-04-19T01:27:11;10.00;75.70
76099;DHT22;64828;49.956;8.636;2023-04-19T01:27:28;10.00;75.70
76099;DHT22;64828;49.956;8.636;2023-04-19T01:27:44;10.00;75.50
76099;DHT22;64828;49.956;8.636;2023-04-19T01:27:59;10.00;75.60
76099;DHT22;64828;49.956;8.636;2023-04-19T01:28:15;9.90;75.70
76099;DHT22;64828;49.956;8.636;2023-04-19T01:28:31;10.00;75.60
76099;DHT22;64828;49.956;8.636;2023-04-19T01:28:47;10.00;75.80
76099;DHT22;64828;49.956;8.636;2023-04-19T01:29:03;9.90;75.70
76099;DHT22;64828;49.956;8.636;2023-04-19T01:29:18;9.90;75.80
76099;DHT22;64828;49.956;8.636;2023-04-19T01:29:36;10.00;75.80
76099;DHT22;64828;49.956;8.636;2023-04-19T01:29:52;10.00;75.90
76099;DHT22;64828;49.956;8.636;2023-04-19T01:30:08;9.90;75.90
76099;DHT22;64828;49.956;8.636;2023-04-19T01:30:23;10.00;75.80
76099;DHT22;64828;49.956;8.636;2023-04-19T01:30:39;10.00;75.90
76099;DHT22;64828;49.956;8.636;2023-04-19T01:30:55;10.00;75.90
76099;DHT22;64828;49.956;8.636;2023-04-19T01:31:11;9.90;75.90
76099;DHT22;64828;49.956;8.636;2023-04-19T01:31:26;10.00;75.90
76099;DHT22;64828;49.956;8.636;2023-04-19T01:31:42;9.90;75.90
76099;DHT22;64828;49.956;8.636;2023-04-19T01:31:57;9.90;75.90
76099;DHT22;64828;49.956;8.636;2023-04-19T01:32:13;9.90;75.80
76099;DHT22;64828;49.956;8.636;2023-04-19T01:32:28;9.90;76.00
76099;DHT22;64828;49.956;8.636;2023-04-19T01:32:44;9.90;75.70
76099;DHT22;64828;49.956;8.636;2023-04-19T01:33:00;9.90;75.70
76099;DHT22;64828;49.956;8.636;2023-04-19T01:33:16;10.00;75.70
76099;DHT22;64828;49.956;8.636;2023-04-19T01:33:31;9.90;75.70
76099;DHT22;64828;49.956;8.636;2023-04-19T01:33:47;9.90;75.70
76099;DHT22;64828;49.956;8.636;2023-04-19T01:34:02;9.90;75.70
76099;DHT22;64828;49.956;8.636;2023-04-19T01:34:19;9.90;75.70
76099;DHT22;64828;49.956;8.636;2023-04-19T01:34:34;9.90;75.80
76099;DHT22;64828;49.956;8.636;2023-04-19T01:34:51;9.90;75.80
76099;DHT22;64828;49.956;8.636;2023-04-19T01:35:07;9.90;75.80
76099;DHT22;64828;49.956;8.636;2023-04-19T01:35:25;9.90;75.90
76099;DHT22;64828;49.956;8.636;2023-04-19T01:35:41;9.90;75.70
76099;DHT22;64828;49.956;8.636;2023-04-19T01:35:56;9.90;75.80
76099;DHT22;64828;49.956;8.636;2023-04-19T01:36:12;9.90;75.60
76099;DHT22;64828;49.956;8.636;2023-04-19T01:36:28;9.90;75.70
76099;DHT22;64828;49.956;8.636;2023-04-19T01:36:43;9.90;75.70
76099;DHT22;64828;49.956;8.636;2023-04-19T01:36:59;9.90;75.80
76099;DHT22;64828;49.956;8.636;2023-04-19T01:37:14;9.90;75.80
76099;DHT22;64828;49.956;8.636;2023-04-19T01:37:30;9.90;75.90
76099;DHT22;64828;49.956;8.636;2023-04-19T01:37:49;9.90;75.80
76099;DHT22;64828;49.956;8.636;2023-04-19T01:38:07;9.90;75.70
76099;DHT22;64828;49.956;8.636;2023-04-19T01:38:22;9.90;75.70
76099;DHT22;64828;49.956;8.636;2023-04-19T01:38:38;9.90;75.80
76099;DHT22;64828;49.956;8.636;2023-04-19T01:38:55;9.90;75.90
76099;DHT22;64828;49.956;8.636;2023-04-19T01:39:11;9.90;75.70
76099;DHT22;64828;49.956;8.636;2023-04-19T01:39:27;9.90;75.70
76099;DHT22;64828;49.956;8.636;2023-04-19T01:39:42;9.90;75.60
76099;DHT22;64828;49.956;8.636;2023-04-19T01:39:58;9.90;75.70
76099;DHT22;64828;49.956;8.636;2023-04-19T01:40:14;9.90;75.70
76099;DHT22;64828;49.956;8.636;2023-04-19T01:40:30;9.90;75.90
76099;DHT22;64828;49.956;8.636;2023-04-19T01:40:45;9.90;75.90
76099;DHT22;64828;49.956;8.636;2023-04-19T01:41:01;9.90;75.90
76099;DHT22;64828;49.956;8.636;2023-04-19T01:41:16;9.90;76.00
76099;DHT22;64828;49.956;8.636;2023-04-19T01:41:32;9.90;76.00